sensor_id;sensor_type;location;lat;lon;timestamp;temperature;humidity
69418;DHT22;56610;48.872;2.400;2023-10-31T00:01:06;13.70;99.90
69418;DHT22;56610;48.872;2.400;2023-10-31T00:03:32;13.80;99.90
69418;DHT22;56610;48.872;2.400;2023-10-31T00:05:57;13.80;99.90
69418;DHT22;56610;48.872;2.400;2023-10-31T00:08:23;13.80;99.90
69418;DHT22;56610;48.872;2.400;2023-10-31T00:10:49;13.80;99.90
69418;DHT22;56610;48.872;2.400;2023-10-31T00:13:15;13.70;99.90
69418;DHT22;56610;48.872;2.400;2023-10-31T00:15:40;13.70;99.90
69418;DHT22;56610;48.872;2.400;2023-10-31T00:18:06;13.80;99.90
69418;DHT22;56610;48.872;2.400;2023-10-31T00:20:31;13.80;99.90
69418;DHT22;56610;48.872;2.400;2023-10-31T00:22:57;13.80;99.90
69418;DHT22;56610;48.872;2.400;2023-10-31T00:25:22;13.80;99.90
69418;DHT22;56610;48.872;2.400;2023-10-31T00:27:48;13.90;99.90
69418;DHT22;56610;48.872;2.400;2023-10-31T00:30:13;13.80;99.90
69418;DHT22;56610;48.872;2.400;2023-10-31T00:32:39;13.80;99.90
69418;DHT22;56610;48.872;2.400;2023-10-31T00:35:04;13.70;99.90
69418;DHT22;56610;48.872;2.400;2023-10-31T00:37:30;13.70;99.90
69418;DHT22;56610;48.872;2.400;2023-10-31T00:39:55;13.80;99.90
69418;DHT22;56610;48.872;2.400;2023-10-31T00:42:21;13.80;99.90
69418;DHT22;56610;48.872;2.400;2023-10-31T00:44:46;13.80;99.90
69418;DHT22;56610;48.872;2.400;2023-10-31T00:47:12;13.80;99.90
69418;DHT22;56610;48.872;2.400;2023-10-31T00:49:37;13.80;99.90
69418;DHT22;56610;48.872;2.400;2023-10-31T00:52:03;13.90;99.90
69418;DHT22;56610;48.872;2.400;2023-10-31T00:54:28;13.80;99.90
69418;DHT22;56610;48.872;2.400;2023-10-31T00:56:54;13.90;99.90
69418;DHT22;56610;48.872;2.400;2023-10-31T00:59:19;13.90;99.90
69418;DHT22;56610;48.872;2.400;2023-10-31T01:01:45;13.90;99.90
69418;DHT22;56610;48.872;2.400;2023-10-31T01:04:10;13.80;99.90
69418;DHT22;56610;48.872;2.400;2023-10-31T01:06:40;13.80;99.90
69418;DHT22;56610;48.872;2.400;2023-10-31T01:09:06;13.70;99.90
69418;DHT22;56610;48.872;2.400;2023-10-31T01:11:31;13.70;99.90
69418;DHT22;56610;48.872;2.400;2023-10-31T01:13:56;13.50;99.90
69418;DHT22;56610;48.872;2.400;2023-10-31T01:16:22;13.60;99.90
69418;DHT22;56610;48.872;2.400;2023-10-31T01:18:47;13.60;99.90
69418;DHT22;56610;48.872;2.400;2023-10-31T01:21:13;13.60;99.90
69418;DHT22;56610;48.872;2.400;2023-10-31T01:23:38;13.70;99.90
69418;DHT22;56610;48.872;2.400;2023-10-31T01:26:04;13.70;99.90
69418;DHT22;56610;48.872;2.400;2023-10-31T01:28:29;13.80;99.90
69418;DHT22;56610;48.872;2.400;2023-10-31T01:30:55;13.80;99.90
69418;DHT22;56610;48.872;2.400;2023-10-31T01:33:20;13.80;99.90
69418;DHT22;56610;48.872;2.400;2023-10-31T01:35:46;13.70;99.90
69418;DHT22;56610;48.872;2.400;2023-10-31T01:38:11;13.80;99.90
69418;DHT22;56610;48.872;2.400;2023-10-31T01:40:37;13.80;99.90
69418;DHT22;56610;48.872;2.400;2023-10-31T01:43:02;13.90;99.90
69418;DHT22;56610;48.872;2.400;2023-10-31T01:45:28;13.80;99.90
69418;DHT22;56610;48.872;2.400;2023-10-31T01:47:53;13.80;99.90
69418;DHT22;56610;48.872;2.400;2023-10-31T01:50:19;13.80;99.90
69418;DHT22;56610;48.872;2.400;2023-10-31T01:52:45;13.80;99.90
69418;DHT22;56610;48.872;2.400;2023-10-31T01:55:10;13.80;99.90
69418;DHT22;56610;48.872;2.400;2023-10-31T01:57:36;13.80;99.90
69418;DHT22;56610;48.872;2.400;2023-10-31T02:00:03;13.90;99.90
69418;DHT22;56610;48.872;2.400;2023-10-31T02:05:13;13.80;99.90
69418;DHT22;56610;48.872;2.400;2023-10-31T02:07:38;13.80;99.90
69418;DHT22;56610;48.872;2.400;2023-10-31T02:10:04;13.70;99.90
69418;DHT22;56610;48.872;2.400;2023-10-31T02:12:33;13.70;99.90
69418;DHT22;56610;48.872;2.400;2023-10-31T02:14:59;13.80;99.90
69418;DHT22;56610;48.872;2.400;2023-10-31T02:17:24;13.70;99.90
69418;DHT22;56610;48.872;2.400;2023-10-31T02:19:50;13.70;99.90
69418;DHT22;56610;48.872;2.400;2023-10-31T02:22:15;13.60;99.90
69418;DHT22;56610;48.872;2.400;2023-10-31T02:24:41;13.50;99.90
69418;DHT22;56610;48.872;2.400;2023-10-31T02:27:06;13.40;99.90
69418;DHT22;56610;48.872;2.400;2023-10-31T02:29:31;13.40;99.90
69418;DHT22;56610;48.872;2.400;2023-10-31T02:31:57;13.40;99.90
69418;DHT22;56610;48.872;2.400;2023-10-31T02:34:22;13.50;99.90
69418;DHT22;56610;48.872;2.400;2023-10-31T02:36:48;13.30;99.90
69418;DHT22;56610;48.872;2.400;2023-10-31T02:39:14;13.20;99.90
69418;DHT22;56610;48.872;2.400;2023-10-31T02:41:39;13.10;99.90
69418;DHT22;56610;48.872;2.400;2023-10-31T02:44:05;13.20;99.90
69418;DHT22;56610;48.872;2.400;2023-10-31T02:46:30;13.30;99.90
69418;DHT22;56610;48.872;2.400;2023-10-31T02:48:55;13.30;99.90
69418;DHT22;56610;48.872;2.400;2023-10-31T02:51:21;13.30;99.90
69418;DHT22;56610;48.872;2.400;2023-10-31T02:53:46;13.30;99.90
69418;DHT22;56610;48.872;2.400;2023-10-31T02:56:12;13.30;99.90
69418;DHT22;56610;48.872;2.400;2023-10-31T02:58:37;13.20;99.90
69418;DHT22;56610;48.872;2.400;2023-10-31T03:01:03;13.30;99.90
69418;DHT22;56610;48.872;2.400;2023-10-31T03:03:28;13.30;99.90
69418;DHT22;56610;48.872;2.400;2023-10-31T03:05:54;13.40;99.90
69418;DHT22;56610;48.872;2.400;2023-10-31T03:08:20;13.40;99.90
69418;DHT22;56610;48.872;2.400;2023-10-31T03:10:47;13.50;99.90
69418;DHT22;56610;48.872;2.400;2023-10-31T03:13:15;13.50;99.90
69418;DHT22;56610;48.872;2.400;2023-10-31T03:15:40;13.50;99.90
69418;DHT22;56610;48.872;2.400;2023-10-31T03:18:06;13.60;99.90
69418;DHT22;56610;48.872;2.400;2023-10-31T03:20:31;13.60;99.90
69418;DHT22;56610;48.872;2.400;2023-10-31T03:22:57;13.50;99.90
69418;DHT22;56610;48.872;2.400;2023-10-31T03:25:22;13.60;99.90
69418;DHT22;56610;48.872;2.400;2023-10-31T03:27:48;13.60;99.90
69418;DHT22;56610;48.872;2.400;2023-10-31T03:30:13;13.60;99.90
69418;DHT22;56610;48.872;2.400;2023-10-31T03:32:39;13.70;99.90
69418;DHT22;56610;48.872;2.400;2023-10-31T03:35:04;13.60;99.90
69418;DHT22;56610;48.872;2.400;2023-10-31T03:37:30;13.60;99.90
69418;DHT22;56610;48.872;2.400;2023-10-31T03:39:55;13.60;99.90
69418;DHT22;56610;48.872;2.400;2023-10-31T03:42:21;13.70;99.90
69418;DHT22;56610;48.872;2.400;2023-10-31T03:44:46;13.50;99.90
69418;DHT22;56610;48.872;2.400;2023-10-31T03:47:12;13.40;99.90
69418;DHT22;56610;48.872;2.400;2023-10-31T03:49:39;13.50;99.90
69418;DHT22;56610;48.872;2.400;2023-10-31T03:52:04;13.50;99.90
69418;DHT22;56610;48.872;2.400;2023-10-31T03:54:30;13.40;99.90
69418;DHT22;56610;48.872;2.400;2023-10-31T03:56:55;13.40;99.90
69418;DHT22;56610;48.872;2.400;2023-10-31T03:59:21;13.20;99.90
69418;DHT22;56610;48.872;2.400;2023-10-31T04:01:46;13.30;99.90
69418;DHT22;56610;48.872;2.400;2023-10-31T04:04:12;13.30;99.90
69418;DHT22;56610;48.872;2.400;2023-10-31T04:06:37;13.30;99.90
69418;DHT22;56610;48.872;2.400;2023-10-31T04:09:06;13.30;99.90
69418;DHT22;56610;48.872;2.400;2023-10-31T04:11:32;13.20;99.90
69418;DHT22;56610;48.872;2.400;2023-10-31T04:13:57;13.10;99.90
69418;DHT22;56610;48.872;2.400;2023-10-31T04:16:23;13.10;99.90
69418;DHT22;56610;48.872;2.400;2023-10-31T04:18:48;13.00;99.90
69418;DHT22;56610;48.872;2.400;2023-10-31T04:21:14;13.00;99.90
69418;DHT22;56610;48.872;2.400;2023-10-31T04:23:39;13.00;99.90
69418;DHT22;56610;48.872;2.400;2023-10-31T04:26:05;13.00;99.90
69418;DHT22;56610;48.872;2.400;2023-10-31T04:28:30;13.10;99.90
69418;DHT22;56610;48.872;2.400;2023-10-31T04:30:56;13.10;99.90
69418;DHT22;56610;48.872;2.400;2023-10-31T04:33:21;13.20;99.90
69418;DHT22;56610;48.872;2.400;2023-10-31T04:35:47;13.30;99.90
69418;DHT22;56610;48.872;2.400;2023-10-31T04:38:12;13.40;99.90
69418;DHT22;56610;48.872;2.400;2023-10-31T04:40:38;13.40;99.90
69418;DHT22;56610;48.872;2.400;2023-10-31T04:43:03;13.50;99.90
69418;DHT22;56610;48.872;2.400;2023-10-31T04:45:29;13.50;99.90
69418;DHT22;56610;48.872;2.400;2023-10-31T04:47:54;13.40;99.90
69418;DHT22;56610;48.872;2.400;2023-10-31T04:50:20;13.50;99.90
69418;DHT22;56610;48.872;2.400;2023-10-31T04:52:45;13.60;99.90
69418;DHT22;56610;48.872;2.400;2023-10-31T04:55:11;13.60;99.90
69418;DHT22;56610;48.872;2.400;2023-10-31T04:57:36;13.60;99.90
69418;DHT22;56610;48.872;2.400;2023-10-31T05:00:02;13.60;99.90
69418;DHT22;56610;48.872;2.400;2023-10-31T05:02:30;13.70;99.90
69418;DHT22;56610;48.872;2.400;2023-10-31T05:04:56;13.70;99.90
69418;DHT22;56610;48.872;2.400;2023-10-31T05:07:23;13.60;99.90
69418;DHT22;56610;48.872;2.400;2023-10-31T05:09:49;13.60;99.90
69418;DHT22;56610;48.872;2.400;2023-10-31T05:12:14;13.50;99.90
69418;DHT22;56610;48.872;2.400;2023-10-31T05:14:41;13.40;99.90
69418;DHT22;56610;48.872;2.400;2023-10-31T05:17:07;13.40;99.90
69418;DHT22;56610;48.872;2.400;2023-10-31T05:19:32;13.40;99.90
69418;DHT22;56610;48.872;2.400;2023-10-31T05:21:57;13.40;99.90
69418;DHT22;56610;48.872;2.400;2023-10-31T05:24:23;13.40;99.90
69418;DHT22;56610;48.872;2.400;2023-10-31T05:26:48;13.50;99.90
69418;DHT22;56610;48.872;2.400;2023-10-31T05:29:14;13.40;99.90
69418;DHT22;56610;48.872;2.400;2023-10-31T05:31:39;13.60;99.90
69418;DHT22;56610;48.872;2.400;2023-10-31T05:34:06;13.60;99.90
69418;DHT22;56610;48.872;2.400;2023-10-31T05:36:32;13.60;99.90
69418;DHT22;56610;48.872;2.400;2023-10-31T05:38:58;13.70;99.90
69418;DHT22;56610;48.872;2.400;2023-10-31T05:41:23;13.80;99.90
69418;DHT22;56610;48.872;2.400;2023-10-31T05:43:49;13.80;99.90
69418;DHT22;56610;48.872;2.400;2023-10-31T05:46:14;13.90;99.90
69418;DHT22;56610;48.872;2.400;2023-10-31T05:48:40;13.80;99.90
69418;DHT22;56610;48.872;2.400;2023-10-31T05:51:16;14.00;99.90
69418;DHT22;56610;48.872;2.400;2023-10-31T05:53:42;13.90;99.90
69418;DHT22;56610;48.872;2.400;2023-10-31T05:56:08;13.90;99.90
69418;DHT22;56610;48.872;2.400;2023-10-31T05:58:34;13.90;99.90
69418;DHT22;56610;48.872;2.400;2023-10-31T06:01:00;13.90;99.90
69418;DHT22;56610;48.872;2.400;2023-10-31T06:03:25;13.80;99.90
69418;DHT22;56610;48.872;2.400;2023-10-31T06:05:51;13.80;99.90
69418;DHT22;56610;48.872;2.400;2023-10-31T06:08:16;13.70;99.90
69418;DHT22;56610;48.872;2.400;2023-10-31T06:10:42;13.80;99.90
69418;DHT22;56610;48.872;2.400;2023-10-31T06:13:07;13.90;99.90
69418;DHT22;56610;48.872;2.400;2023-10-31T06:15:32;13.80;99.90
69418;DHT22;56610;48.872;2.400;2023-10-31T06:17:58;13.70;99.90
69418;DHT22;56610;48.872;2.400;2023-10-31T06:20:23;13.80;99.90
69418;DHT22;56610;48.872;2.400;2023-10-31T06:22:49;13.90;99.90
69418;DHT22;56610;48.872;2.400;2023-10-31T06:25:14;13.90;99.90
69418;DHT22;56610;48.872;2.400;2023-10-31T06:27:40;13.80;99.90
69418;DHT22;56610;48.872;2.400;2023-10-31T06:30:05;13.80;99.90
69418;DHT22;56610;48.872;2.400;2023-10-31T06:32:31;13.80;99.90
69418;DHT22;56610;48.872;2.400;2023-10-31T06:34:56;13.80;99.90
69418;DHT22;56610;48.872;2.400;2023-10-31T06:37:22;13.80;99.90
69418;DHT22;56610;48.872;2.400;2023-10-31T06:39:47;13.80;99.90
69418;DHT22;56610;48.872;2.400;2023-10-31T06:42:13;13.80;99.90
69418;DHT22;56610;48.872;2.400;2023-10-31T06:44:38;13.70;99.90
69418;DHT22;56610;48.872;2.400;2023-10-31T06:47:04;13.70;99.90
69418;DHT22;56610;48.872;2.400;2023-10-31T06:49:29;13.80;99.90
69418;DHT22;56610;48.872;2.400;2023-10-31T06:51:55;13.90;99.90
69418;DHT22;56610;48.872;2.400;2023-10-31T06:54:21;13.80;99.90
69418;DHT22;56610;48.872;2.400;2023-10-31T06:56:47;13.80;99.90
69418;DHT22;56610;48.872;2.400;2023-10-31T06:59:12;13.80;99.90
69418;DHT22;56610;48.872;2.400;2023-10-31T07:01:38;13.80;99.90
69418;DHT22;56610;48.872;2.400;2023-10-31T07:04:03;13.90;99.90
69418;DHT22;56610;48.872;2.400;2023-10-31T07:06:29;13.90;99.90
69418;DHT22;56610;48.872;2.400;2023-10-31T07:08:54;13.80;99.90
69418;DHT22;56610;48.872;2.400;2023-10-31T07:11:20;13.90;99.90
69418;DHT22;56610;48.872;2.400;2023-10-31T07:13:45;13.90;99.90
69418;DHT22;56610;48.872;2.400;2023-10-31T07:16:11;14.00;99.90
69418;DHT22;56610;48.872;2.400;2023-10-31T07:18:36;14.10;99.90
69418;DHT22;56610;48.872;2.400;2023-10-31T07:21:02;14.10;99.90
69418;DHT22;56610;48.872;2.400;2023-10-31T07:23:28;14.10;99.90
69418;DHT22;56610;48.872;2.400;2023-10-31T07:25:54;14.00;99.90
69418;DHT22;56610;48.872;2.400;2023-10-31T07:28:19;14.00;99.90
69418;DHT22;56610;48.872;2.400;2023-10-31T07:30:45;14.10;99.90
69418;DHT22;56610;48.872;2.400;2023-10-31T07:33:10;14.10;99.90
69418;DHT22;56610;48.872;2.400;2023-10-31T07:35:35;14.10;99.90
69418;DHT22;56610;48.872;2.400;2023-10-31T07:38:01;14.00;99.90
69418;DHT22;56610;48.872;2.400;2023-10-31T07:40:27;14.00;99.90
69418;DHT22;56610;48.872;2.400;2023-10-31T07:42:52;14.00;99.90
69418;DHT22;56610;48.872;2.400;2023-10-31T07:45:17;14.10;99.90
69418;DHT22;56610;48.872;2.400;2023-10-31T07:47:43;14.10;99.90
69418;DHT22;56610;48.872;2.400;2023-10-31T07:50:08;14.10;99.90
69418;DHT22;56610;48.872;2.400;2023-10-31T07:52:34;14.10;99.90
69418;DHT22;56610;48.872;2.400;2023-10-31T07:55:00;14.20;99.90
69418;DHT22;56610;48.872;2.400;2023-10-31T07:57:25;14.20;99.90
69418;DHT22;56610;48.872;2.400;2023-10-31T07:59:51;14.20;99.90
69418;DHT22;56610;48.872;2.400;2023-10-31T08:02:16;14.20;99.90
69418;DHT22;56610;48.872;2.400;2023-10-31T08:04:42;14.20;99.90
69418;DHT22;56610;48.872;2.400;2023-10-31T08:07:07;14.20;99.90
69418;DHT22;56610;48.872;2.400;2023-10-31T08:09:33;14.20;99.90
69418;DHT22;56610;48.872;2.400;2023-10-31T08:11:58;14.20;99.90
69418;DHT22;56610;48.872;2.400;2023-10-31T08:14:24;14.30;99.90
69418;DHT22;56610;48.872;2.400;2023-10-31T08:16:49;14.30;99.90
69418;DHT22;56610;48.872;2.400;2023-10-31T08:19:14;14.40;99.90
69418;DHT22;56610;48.872;2.400;2023-10-31T08:21:40;14.30;99.90
69418;DHT22;56610;48.872;2.400;2023-10-31T08:24:06;14.40;99.90
69418;DHT22;56610;48.872;2.400;2023-10-31T08:26:32;14.30;99.90
69418;DHT22;56610;48.872;2.400;2023-10-31T08:28:57;14.40;99.90
69418;DHT22;56610;48.872;2.400;2023-10-31T08:31:23;14.40;99.90
69418;DHT22;56610;48.872;2.400;2023-10-31T08:33:48;14.40;99.90
69418;DHT22;56610;48.872;2.400;2023-10-31T08:36:14;14.30;99.90
69418;DHT22;56610;48.872;2.400;2023-10-31T08:38:39;14.40;99.90
69418;DHT22;56610;48.872;2.400;2023-10-31T08:41:05;14.40;99.90
69418;DHT22;56610;48.872;2.400;2023-10-31T08:43:30;14.30;99.90
69418;DHT22;56610;48.872;2.400;2023-10-31T08:45:56;14.20;99.90
69418;DHT22;56610;48.872;2.400;2023-10-31T08:48:21;14.20;99.90
69418;DHT22;56610;48.872;2.400;2023-10-31T08:50:47;14.20;99.90
69418;DHT22;56610;48.872;2.400;2023-10-31T08:53:13;14.20;99.90
69418;DHT22;56610;48.872;2.400;2023-10-31T08:55:38;14.20;99.90
69418;DHT22;56610;48.872;2.400;2023-10-31T08:58:04;14.30;99.90
69418;DHT22;56610;48.872;2.400;2023-10-31T09:00:29;14.40;99.90
69418;DHT22;56610;48.872;2.400;2023-10-31T09:02:55;14.40;99.90
69418;DHT22;56610;48.872;2.400;2023-10-31T09:05:20;14.40;99.90
69418;DHT22;56610;48.872;2.400;2023-10-31T09:07:46;14.50;99.90
69418;DHT22;56610;48.872;2.400;2023-10-31T09:10:12;14.50;99.90
69418;DHT22;56610;48.872;2.400;2023-10-31T09:12:37;14.60;99.90
69418;DHT22;56610;48.872;2.400;2023-10-31T09:15:03;14.60;99.90
69418;DHT22;56610;48.872;2.400;2023-10-31T09:17:29;14.70;99.90
69418;DHT22;56610;48.872;2.400;2023-10-31T09:19:55;14.70;99.90
69418;DHT22;56610;48.872;2.400;2023-10-31T09:22:20;14.70;99.90
69418;DHT22;56610;48.872;2.400;2023-10-31T09:24:52;14.80;99.90
69418;DHT22;56610;48.872;2.400;2023-10-31T09:27:18;14.80;99.90
69418;DHT22;56610;48.872;2.400;2023-10-31T09:29:43;14.90;99.90
69418;DHT22;56610;48.872;2.400;2023-10-31T09:32:09;14.90;99.90
69418;DHT22;56610;48.872;2.400;2023-10-31T09:34:35;14.90;99.90
69418;DHT22;56610;48.872;2.400;2023-10-31T09:37:00;14.90;99.90
69418;DHT22;56610;48.872;2.400;2023-10-31T09:39:26;14.90;99.90
69418;DHT22;56610;48.872;2.400;2023-10-31T09:41:53;14.80;99.90
69418;DHT22;56610;48.872;2.400;2023-10-31T09:44:18;14.80;99.90
69418;DHT22;56610;48.872;2.400;2023-10-31T09:46:45;14.70;99.90
69418;DHT22;56610;48.872;2.400;2023-10-31T09:49:10;14.80;99.90
69418;DHT22;56610;48.872;2.400;2023-10-31T09:51:37;14.80;99.90
69418;DHT22;56610;48.872;2.400;2023-10-31T09:54:02;14.80;99.90
69418;DHT22;56610;48.872;2.400;2023-10-31T09:56:29;14.80;99.90
69418;DHT22;56610;48.872;2.400;2023-10-31T09:59:00;14.70;99.90
69418;DHT22;56610;48.872;2.400;2023-10-31T10:01:25;14.80;99.90
69418;DHT22;56610;48.872;2.400;2023-10-31T10:03:51;14.80;99.90
69418;DHT22;56610;48.872;2.400;2023-10-31T10:06:16;14.90;99.90
69418;DHT22;56610;48.872;2.400;2023-10-31T10:08:46;14.90;99.90
69418;DHT22;56610;48.872;2.400;2023-10-31T10:11:12;14.90;99.90
69418;DHT22;56610;48.872;2.400;2023-10-31T10:13:37;14.90;99.90
69418;DHT22;56610;48.872;2.400;2023-10-31T10:16:03;15.10;99.90
69418;DHT22;56610;48.872;2.400;2023-10-31T10:18:29;15.10;99.90
69418;DHT22;56610;48.872;2.400;2023-10-31T10:20:58;15.10;99.90
69418;DHT22;56610;48.872;2.400;2023-10-31T10:23:24;15.10;99.90
69418;DHT22;56610;48.872;2.400;2023-10-31T10:25:51;15.20;99.90
69418;DHT22;56610;48.872;2.400;2023-10-31T10:28:17;15.20;99.90
69418;DHT22;56610;48.872;2.400;2023-10-31T10:30:44;15.20;99.90
69418;DHT22;56610;48.872;2.400;2023-10-31T10:33:10;15.30;99.90
69418;DHT22;56610;48.872;2.400;2023-10-31T10:35:35;15.40;99.90
69418;DHT22;56610;48.872;2.400;2023-10-31T10:38:01;15.40;99.90
69418;DHT22;56610;48.872;2.400;2023-10-31T10:40:27;15.50;99.90
69418;DHT22;56610;48.872;2.400;2023-10-31T10:42:52;15.60;99.90
69418;DHT22;56610;48.872;2.400;2023-10-31T10:45:22;15.60;99.90
69418;DHT22;56610;48.872;2.400;2023-10-31T10:47:49;15.70;99.90
69418;DHT22;56610;48.872;2.400;2023-10-31T10:50:16;15.60;99.90
69418;DHT22;56610;48.872;2.400;2023-10-31T10:52:49;15.70;99.90
69418;DHT22;56610;48.872;2.400;2023-10-31T10:55:20;15.60;99.90
69418;DHT22;56610;48.872;2.400;2023-10-31T10:57:49;15.80;99.90
69418;DHT22;56610;48.872;2.400;2023-10-31T11:00:19;15.70;99.90
69418;DHT22;56610;48.872;2.400;2023-10-31T11:02:49;15.80;99.90
69418;DHT22;56610;48.872;2.400;2023-10-31T11:05:17;15.80;99.90
69418;DHT22;56610;48.872;2.400;2023-10-31T11:07:43;15.90;99.90
69418;DHT22;56610;48.872;2.400;2023-10-31T11:10:09;15.80;99.90
69418;DHT22;56610;48.872;2.400;2023-10-31T11:12:35;15.80;99.90
69418;DHT22;56610;48.872;2.400;2023-10-31T11:15:02;15.80;99.90
69418;DHT22;56610;48.872;2.400;2023-10-31T11:17:31;15.80;99.90
69418;DHT22;56610;48.872;2.400;2023-10-31T11:19:57;15.90;99.90
69418;DHT22;56610;48.872;2.400;2023-10-31T11:22:23;15.90;99.90
69418;DHT22;56610;48.872;2.400;2023-10-31T11:24:49;16.00;99.90
69418;DHT22;56610;48.872;2.400;2023-10-31T11:27:14;16.10;99.90
69418;DHT22;56610;48.872;2.400;2023-10-31T11:29:42;16.20;99.90
69418;DHT22;56610;48.872;2.400;2023-10-31T11:32:10;16.20;99.90
69418;DHT22;56610;48.872;2.400;2023-10-31T11:34:39;16.30;99.90
69418;DHT22;56610;48.872;2.400;2023-10-31T11:37:25;16.30;99.90
69418;DHT22;56610;48.872;2.400;2023-10-31T11:42:50;16.40;99.90
69418;DHT22;56610;48.872;2.400;2023-10-31T11:45:34;16.40;99.90
69418;DHT22;56610;48.872;2.400;2023-10-31T11:48:03;16.30;99.90
69418;DHT22;56610;48.872;2.400;2023-10-31T11:50:32;16.30;99.90
69418;DHT22;56610;48.872;2.400;2023-10-31T11:53:00;16.30;99.90
69418;DHT22;56610;48.872;2.400;2023-10-31T11:55:26;16.20;99.90
69418;DHT22;56610;48.872;2.400;2023-10-31T11:57:52;16.20;99.90
69418;DHT22;56610;48.872;2.400;2023-10-31T12:00:21;16.20;99.90
69418;DHT22;56610;48.872;2.400;2023-10-31T12:03:00;16.20;99.90
69418;DHT22;56610;48.872;2.400;2023-10-31T12:05:25;16.20;99.90
69418;DHT22;56610;48.872;2.400;2023-10-31T12:07:51;16.40;99.90
69418;DHT22;56610;48.872;2.400;2023-10-31T12:10:23;16.50;99.90
69418;DHT22;56610;48.872;2.400;2023-10-31T12:12:49;16.70;99.90
69418;DHT22;56610;48.872;2.400;2023-10-31T12:15:15;16.90;99.90
69418;DHT22;56610;48.872;2.400;2023-10-31T12:17:41;17.20;99.90
69418;DHT22;56610;48.872;2.400;2023-10-31T12:20:07;17.50;99.90
69418;DHT22;56610;48.872;2.400;2023-10-31T12:22:33;17.70;99.90
69418;DHT22;56610;48.872;2.400;2023-10-31T12:25:02;17.80;99.90
69418;DHT22;56610;48.872;2.400;2023-10-31T12:27:49;17.90;99.90
69418;DHT22;56610;48.872;2.400;2023-10-31T12:30:18;17.90;99.90
69418;DHT22;56610;48.872;2.400;2023-10-31T12:32:44;17.80;99.90
69418;DHT22;56610;48.872;2.400;2023-10-31T12:35:13;17.80;99.90
69418;DHT22;56610;48.872;2.400;2023-10-31T12:37:45;17.70;99.90
69418;DHT22;56610;48.872;2.400;2023-10-31T12:40:12;17.70;99.90
69418;DHT22;56610;48.872;2.400;2023-10-31T12:42:38;17.60;99.90
69418;DHT22;56610;48.872;2.400;2023-10-31T12:45:04;17.60;99.90
69418;DHT22;56610;48.872;2.400;2023-10-31T12:47:30;17.60;99.90
69418;DHT22;56610;48.872;2.400;2023-10-31T12:50:06;17.60;99.90
69418;DHT22;56610;48.872;2.400;2023-10-31T12:52:51;17.80;99.90
69418;DHT22;56610;48.872;2.400;2023-10-31T12:55:17;17.80;99.90
69418;DHT22;56610;48.872;2.400;2023-10-31T12:57:43;17.80;99.90
69418;DHT22;56610;48.872;2.400;2023-10-31T13:00:10;17.80;99.90
69418;DHT22;56610;48.872;2.400;2023-10-31T13:02:38;17.70;99.90
69418;DHT22;56610;48.872;2.400;2023-10-31T13:05:07;17.70;99.90
69418;DHT22;56610;48.872;2.400;2023-10-31T13:07:33;17.70;99.90
69418;DHT22;56610;48.872;2.400;2023-10-31T13:09:59;17.70;99.90
69418;DHT22;56610;48.872;2.400;2023-10-31T13:12:24;17.70;99.90
69418;DHT22;56610;48.872;2.400;2023-10-31T13:14:52;17.70;99.90
69418;DHT22;56610;48.872;2.400;2023-10-31T13:17:17;17.70;99.90
69418;DHT22;56610;48.872;2.400;2023-10-31T13:19:43;18.00;99.90
69418;DHT22;56610;48.872;2.400;2023-10-31T13:22:08;18.00;99.90
69418;DHT22;56610;48.872;2.400;2023-10-31T13:24:34;18.00;99.90
69418;DHT22;56610;48.872;2.400;2023-10-31T13:26:59;18.10;99.90
69418;DHT22;56610;48.872;2.400;2023-10-31T13:29:28;18.10;99.90
69418;DHT22;56610;48.872;2.400;2023-10-31T13:31:53;18.00;99.90
69418;DHT22;56610;48.872;2.400;2023-10-31T13:34:18;17.90;99.90
69418;DHT22;56610;48.872;2.400;2023-10-31T13:36:44;17.80;99.90
69418;DHT22;56610;48.872;2.400;2023-10-31T13:39:09;17.80;99.90
69418;DHT22;56610;48.872;2.400;2023-10-31T13:41:35;17.70;99.90
69418;DHT22;56610;48.872;2.400;2023-10-31T13:44:00;17.60;99.90
69418;DHT22;56610;48.872;2.400;2023-10-31T13:46:28;17.70;99.90
69418;DHT22;56610;48.872;2.400;2023-10-31T13:48:54;17.50;99.90
69418;DHT22;56610;48.872;2.400;2023-10-31T13:51:20;17.50;99.90
69418;DHT22;56610;48.872;2.400;2023-10-31T13:53:45;17.50;99.90
69418;DHT22;56610;48.872;2.400;2023-10-31T13:56:11;17.30;99.90
69418;DHT22;56610;48.872;2.400;2023-10-31T13:58:36;17.30;99.90
69418;DHT22;56610;48.872;2.400;2023-10-31T14:01:02;17.30;99.90
69418;DHT22;56610;48.872;2.400;2023-10-31T14:03:27;17.40;99.90
69418;DHT22;56610;48.872;2.400;2023-10-31T14:05:53;17.40;99.90
69418;DHT22;56610;48.872;2.400;2023-10-31T14:08:18;17.60;99.90
69418;DHT22;56610;48.872;2.400;2023-10-31T14:10:44;17.60;99.90
69418;DHT22;56610;48.872;2.400;2023-10-31T14:13:11;17.70;99.90
69418;DHT22;56610;48.872;2.400;2023-10-31T14:15:36;17.70;99.90
69418;DHT22;56610;48.872;2.400;2023-10-31T14:18:03;17.70;99.90
69418;DHT22;56610;48.872;2.400;2023-10-31T14:20:29;17.70;99.90
69418;DHT22;56610;48.872;2.400;2023-10-31T14:22:54;17.70;99.90
69418;DHT22;56610;48.872;2.400;2023-10-31T14:25:20;17.70;99.90
69418;DHT22;56610;48.872;2.400;2023-10-31T14:27:45;17.60;99.90
69418;DHT22;56610;48.872;2.400;2023-10-31T14:30:11;17.60;99.90
69418;DHT22;56610;48.872;2.400;2023-10-31T14:32:37;17.60;99.90
69418;DHT22;56610;48.872;2.400;2023-10-31T14:35:04;17.40;99.90
69418;DHT22;56610;48.872;2.400;2023-10-31T14:37:29;17.40;99.90
69418;DHT22;56610;48.872;2.400;2023-10-31T14:39:55;17.30;99.90
69418;DHT22;56610;48.872;2.400;2023-10-31T14:42:21;17.20;99.90
69418;DHT22;56610;48.872;2.400;2023-10-31T14:44:47;17.30;99.90
69418;DHT22;56610;48.872;2.400;2023-10-31T14:47:12;17.40;99.90
69418;DHT22;56610;48.872;2.400;2023-10-31T14:49:38;17.60;99.90
69418;DHT22;56610;48.872;2.400;2023-10-31T14:52:04;17.50;99.90
69418;DHT22;56610;48.872;2.400;2023-10-31T14:54:31;17.50;99.90
69418;DHT22;56610;48.872;2.400;2023-10-31T14:56:57;17.50;99.90
69418;DHT22;56610;48.872;2.400;2023-10-31T14:59:22;17.40;99.90
69418;DHT22;56610;48.872;2.400;2023-10-31T15:01:48;17.40;99.90
69418;DHT22;56610;48.872;2.400;2023-10-31T15:04:14;17.30;99.90
69418;DHT22;56610;48.872;2.400;2023-10-31T15:06:43;17.40;99.90
69418;DHT22;56610;48.872;2.400;2023-10-31T15:09:09;17.40;99.90
69418;DHT22;56610;48.872;2.400;2023-10-31T15:11:35;17.40;99.90
69418;DHT22;56610;48.872;2.400;2023-10-31T15:14:01;17.50;99.90
69418;DHT22;56610;48.872;2.400;2023-10-31T15:16:27;17.50;99.90
69418;DHT22;56610;48.872;2.400;2023-10-31T15:18:52;17.40;99.90
69418;DHT22;56610;48.872;2.400;2023-10-31T15:21:17;17.40;99.90
69418;DHT22;56610;48.872;2.400;2023-10-31T15:23:43;17.40;99.90
69418;DHT22;56610;48.872;2.400;2023-10-31T15:26:08;17.50;99.90
69418;DHT22;56610;48.872;2.400;2023-10-31T15:28:38;17.60;99.90